createdAt,value
2018-12-26T00:00:35.569Z,4.30
2018-12-26T00:03:04.232Z,4.10
2018-12-26T00:05:32.787Z,3.83
2018-12-26T00:08:01.395Z,4.00
2018-12-26T00:10:29.944Z,4.17
2018-12-26T00:12:58.533Z,4.07
2018-12-26T00:15:27.371Z,4.67
2018-12-26T00:17:55.925Z,4.33
2018-12-26T00:20:24.528Z,4.87
2018-12-26T00:22:53.491Z,5.33
2018-12-26T00:25:22.079Z,4.83
2018-12-26T00:27:50.655Z,4.97
2018-12-26T00:30:19.213Z,5.47
2018-12-26T00:32:47.793Z,4.63
2018-12-26T00:35:16.381Z,4.90
2018-12-26T00:37:44.956Z,5.37
2018-12-26T00:40:13.540Z,4.93
2018-12-26T00:42:42.143Z,5.20
2018-12-26T00:45:10.819Z,5.33
2018-12-26T00:47:39.488Z,5.70
2018-12-26T00:50:08.153Z,5.77
2018-12-26T00:52:37.073Z,5.77
2018-12-26T00:55:06.096Z,5.40
2018-12-26T00:57:34.649Z,5.30
2018-12-26T01:00:03.320Z,5.23
2018-12-26T01:02:32.445Z,5.40
2018-12-26T01:05:01.321Z,5.73
2018-12-26T01:07:29.899Z,6.03
2018-12-26T01:09:59.172Z,6.90
2018-12-26T01:12:27.732Z,5.93
2018-12-26T01:14:56.348Z,5.70
2018-12-26T01:17:24.900Z,6.23
2018-12-26T01:19:53.856Z,6.20
2018-12-26T01:22:22.448Z,5.33
2018-12-26T01:24:51.009Z,5.77
2018-12-26T01:27:19.594Z,6.57
2018-12-26T01:29:48.165Z,6.33
2018-12-26T01:32:16.733Z,6.90
2018-12-26T01:34:45.333Z,6.03
2018-12-26T01:37:13.893Z,6.33
2018-12-26T01:39:42.584Z,6.60
2018-12-26T01:42:11.160Z,6.40
2018-12-26T01:44:39.721Z,6.77
2018-12-26T01:47:08.387Z,6.93
2018-12-26T01:49:36.976Z,6.73
2018-12-26T01:52:05.548Z,7.20
2018-12-26T01:54:34.123Z,7.07
2018-12-26T01:57:02.987Z,6.80
2018-12-26T01:59:31.571Z,6.37
2018-12-26T02:02:00.183Z,6.73
2018-12-26T02:04:28.736Z,6.90
2018-12-26T02:06:57.300Z,6.77
2018-12-26T02:09:26.220Z,7.50
2018-12-26T02:11:54.792Z,7.27
2018-12-26T02:14:23.386Z,7.53
2018-12-26T02:16:51.940Z,8.17
2018-12-26T02:19:20.537Z,7.10
2018-12-26T02:21:49.250Z,8.03
2018-12-26T02:24:17.867Z,7.70
2018-12-26T02:26:47.327Z,7.63
2018-12-26T02:29:15.879Z,7.63
2018-12-26T02:31:44.455Z,8.43
2018-12-26T02:34:13.366Z,7.63
2018-12-26T02:36:41.937Z,8.00
2018-12-26T02:39:10.510Z,7.83
2018-12-26T02:41:39.083Z,9.03
2018-12-26T02:44:07.643Z,8.40
2018-12-26T02:46:36.235Z,9.75
2018-12-26T02:49:04.848Z,8.30
2018-12-26T02:51:33.426Z,8.57
2018-12-26T02:54:02.022Z,8.20
2018-12-26T02:56:30.569Z,8.53
2018-12-26T02:58:59.520Z,8.50
2018-12-26T03:01:28.390Z,9.23
2018-12-26T03:03:56.958Z,9.30
2018-12-26T03:06:25.538Z,9.90
2018-12-26T03:08:54.107Z,10.20
2018-12-26T03:11:22.664Z,10.37
2018-12-26T03:13:51.263Z,10.63
2018-12-26T03:16:19.907Z,10.53
2018-12-26T03:18:48.583Z,11.00
2018-12-26T03:21:17.157Z,11.70
2018-12-26T03:23:45.935Z,11.10
2018-12-26T03:26:14.563Z,11.33
2018-12-26T03:28:43.131Z,11.23
2018-12-26T03:31:11.693Z,12.40
2018-12-26T03:33:40.298Z,11.90
2018-12-26T03:36:09.296Z,12.97
2018-12-26T03:38:37.927Z,12.43
2018-12-26T03:41:06.516Z,13.63
2018-12-26T03:43:35.150Z,13.37
2018-12-26T03:46:04.043Z,13.40
2018-12-26T03:48:32.803Z,16.00
2018-12-26T03:51:01.431Z,12.70
2018-12-26T03:53:30.462Z,12.73
2018-12-26T03:55:59.037Z,13.27
2018-12-26T03:58:27.767Z,13.90
2018-12-26T04:00:56.353Z,14.13
2018-12-26T04:03:25.148Z,14.40
2018-12-26T04:05:53.749Z,14.17
2018-12-26T04:08:22.895Z,14.47
2018-12-26T04:10:51.548Z,13.70
2018-12-26T04:13:20.299Z,14.47
2018-12-26T04:15:49.041Z,15.13
2018-12-26T04:18:18.071Z,14.13
2018-12-26T04:20:46.726Z,15.33
2018-12-26T04:23:15.347Z,14.27
2018-12-26T04:25:44.077Z,13.50
2018-12-26T04:28:12.660Z,14.03
2018-12-26T04:30:41.215Z,14.73
2018-12-26T04:33:09.889Z,13.10
2018-12-26T04:35:38.814Z,14.80
2018-12-26T04:38:07.389Z,13.50
2018-12-26T04:40:35.990Z,14.83
2018-12-26T04:43:04.541Z,14.10
2018-12-26T04:45:33.144Z,13.93
2018-12-26T04:48:02.028Z,13.23
2018-12-26T04:50:30.599Z,12.57
2018-12-26T04:52:59.179Z,13.70
2018-12-26T04:55:27.742Z,13.33
2018-12-26T04:57:56.405Z,13.07
2018-12-26T05:00:24.983Z,12.63
2018-12-26T05:02:53.591Z,15.95
2018-12-26T05:05:22.530Z,13.23
2018-12-26T05:07:51.103Z,13.13
2018-12-26T05:10:19.674Z,12.60
2018-12-26T05:12:48.692Z,12.47
2018-12-26T05:15:17.295Z,12.10
2018-12-26T05:17:45.899Z,12.10
2018-12-26T05:20:14.473Z,12.30
2018-12-26T05:22:43.510Z,11.73
2018-12-26T05:25:12.249Z,12.63
2018-12-26T05:27:40.824Z,11.93
2018-12-26T05:30:09.518Z,11.80
2018-12-26T05:32:38.114Z,11.43
2018-12-26T05:35:06.806Z,12.97
2018-12-26T05:37:35.401Z,11.90
2018-12-26T05:40:05.319Z,12.40
2018-12-26T05:42:33.882Z,12.43
2018-12-26T05:45:02.457Z,11.73
2018-12-26T05:47:31.026Z,11.20
2018-12-26T05:49:59.591Z,13.70
2018-12-26T05:52:28.234Z,12.40
2018-12-26T05:54:56.783Z,12.00
2018-12-26T05:57:25.370Z,11.83
2018-12-26T05:59:53.950Z,12.17
2018-12-26T06:02:22.609Z,11.17
2018-12-26T06:04:51.582Z,12.27
2018-12-26T06:07:20.147Z,12.23
2018-12-26T06:09:48.723Z,12.90
2018-12-26T06:12:17.302Z,12.10
2018-12-26T06:14:45.958Z,12.40
2018-12-26T06:17:14.553Z,12.17
2018-12-26T06:19:43.135Z,11.97
2018-12-26T06:22:11.728Z,11.67
2018-12-26T06:24:40.381Z,11.97
2018-12-26T06:27:08.955Z,11.33
2018-12-26T06:29:37.514Z,12.77
2018-12-26T06:32:06.179Z,11.73
2018-12-26T06:34:34.811Z,11.60
2018-12-26T06:37:03.405Z,12.20
2018-12-26T06:39:31.977Z,11.40
2018-12-26T06:42:00.535Z,10.67
2018-12-26T06:44:29.416Z,12.33
2018-12-26T06:46:58.042Z,11.57
2018-12-26T06:49:26.600Z,11.17
2018-12-26T06:51:55.198Z,13.00
2018-12-26T06:54:23.754Z,12.17
2018-12-26T06:56:52.389Z,11.37
2018-12-26T06:59:20.971Z,10.07
2018-12-26T07:01:49.519Z,10.33
2018-12-26T07:04:18.124Z,9.90
2018-12-26T07:06:46.671Z,10.17
2018-12-26T07:09:15.260Z,10.23
2018-12-26T07:11:43.846Z,9.87
2018-12-26T07:14:12.507Z,10.60
2018-12-26T07:16:41.115Z,11.10
2018-12-26T07:19:09.738Z,9.50
2018-12-26T07:21:38.290Z,11.33
2018-12-26T07:24:06.865Z,10.20
2018-12-26T07:26:35.439Z,11.30
2018-12-26T07:29:04.076Z,9.20
2018-12-26T07:31:32.686Z,8.87
2018-12-26T07:34:03.331Z,9.60
2018-12-26T07:36:31.475Z,9.23
2018-12-26T07:39:00.042Z,9.60
2018-12-26T07:41:28.611Z,9.43
2018-12-26T07:43:57.195Z,10.43
2018-12-26T07:46:25.748Z,10.20
2018-12-26T07:48:54.322Z,10.50
2018-12-26T07:51:22.897Z,9.83
2018-12-26T07:53:51.481Z,10.33
2018-12-26T07:56:20.049Z,10.40
2018-12-26T07:58:48.648Z,10.77
2018-12-26T08:01:17.199Z,10.37
2018-12-26T08:03:45.807Z,10.43
2018-12-26T08:06:14.354Z,11.30
2018-12-26T08:08:42.947Z,11.10
2018-12-26T08:11:11.550Z,10.90
2018-12-26T08:13:40.112Z,11.07
2018-12-26T08:16:08.705Z,12.03
2018-12-26T08:18:37.325Z,11.50
2018-12-26T08:21:05.899Z,11.40
2018-12-26T08:23:34.487Z,12.93
2018-12-26T08:26:03.060Z,11.90
2018-12-26T08:28:31.618Z,11.27
2018-12-26T08:31:00.210Z,13.13
2018-12-26T08:33:28.758Z,12.50
2018-12-26T08:35:57.358Z,11.07
2018-12-26T08:38:25.934Z,12.10
2018-12-26T08:40:54.502Z,12.70
2018-12-26T08:43:23.086Z,12.40
2018-12-26T08:45:51.654Z,12.20
2018-12-26T08:48:20.215Z,14.20
2018-12-26T08:50:48.820Z,12.37
2018-12-26T08:53:17.374Z,13.03
2018-12-26T08:55:45.970Z,15.48
2018-12-26T08:58:14.543Z,12.40
2018-12-26T09:00:43.094Z,12.73
2018-12-26T09:03:11.698Z,12.03
2018-12-26T09:05:40.259Z,12.80
2018-12-26T09:08:08.835Z,12.67
2018-12-26T09:10:37.482Z,12.40
2018-12-26T09:13:06.039Z,12.73
2018-12-26T09:15:34.646Z,11.63
2018-12-26T09:18:03.575Z,12.27
2018-12-26T09:20:32.173Z,13.03
2018-12-26T09:23:00.773Z,11.50
2018-12-26T09:25:29.395Z,12.80
2018-12-26T09:27:57.980Z,12.60
2018-12-26T09:30:26.549Z,13.00
2018-12-26T09:32:55.136Z,12.90
2018-12-26T09:35:23.823Z,14.20
2018-12-26T09:37:52.390Z,12.93
2018-12-26T09:40:20.959Z,11.47
2018-12-26T09:42:49.562Z,11.97
2018-12-26T09:45:18.114Z,15.93
2018-12-26T09:47:46.697Z,11.87
2018-12-26T09:50:15.280Z,10.77
2018-12-26T09:52:43.859Z,11.37
2018-12-26T09:55:12.438Z,10.57
2018-12-26T09:57:41.297Z,11.73
2018-12-26T10:00:10.343Z,12.18
2018-12-26T10:02:38.913Z,12.10
2018-12-26T10:05:08.127Z,11.60
2018-12-26T10:07:37.067Z,10.90
2018-12-26T10:10:07.891Z,11.10
2018-12-26T10:12:36.532Z,11.37
2018-12-26T10:15:07.350Z,11.60
2018-12-26T10:17:35.943Z,11.90
2018-12-26T10:20:05.841Z,11.53
2018-12-26T10:22:34.435Z,9.97
2018-12-26T10:25:02.994Z,11.80
2018-12-26T10:27:31.564Z,13.07
2018-12-26T10:30:00.155Z,11.67
2018-12-26T10:32:28.728Z,10.97
2018-12-26T10:34:57.310Z,11.00
2018-12-26T10:37:25.906Z,11.93
2018-12-26T10:39:54.461Z,10.40
2018-12-26T10:42:23.059Z,12.10
2018-12-26T10:44:51.612Z,11.50
2018-12-26T10:47:20.386Z,11.50
2018-12-26T10:49:48.962Z,11.30
2018-12-26T10:52:17.523Z,10.97
2018-12-26T10:54:46.113Z,10.40
2018-12-26T10:57:14.692Z,10.37
2018-12-26T10:59:43.268Z,10.10
2018-12-26T11:02:11.845Z,10.73
2018-12-26T11:04:40.415Z,10.97
2018-12-26T11:07:08.976Z,10.97
2018-12-26T11:09:37.583Z,10.63
2018-12-26T11:12:06.262Z,10.97
2018-12-26T11:14:34.863Z,10.97
2018-12-26T11:17:03.526Z,10.03
2018-12-26T11:19:32.145Z,13.15
2018-12-26T11:22:00.726Z,10.57
2018-12-26T11:24:29.308Z,9.97
2018-12-26T11:26:58.239Z,10.33
2018-12-26T11:29:26.826Z,10.27
2018-12-26T11:31:55.390Z,9.33
2018-12-26T11:34:23.990Z,11.22
2018-12-26T11:36:52.990Z,10.30
2018-12-26T11:39:21.575Z,10.23
2018-12-26T11:41:50.317Z,9.33
2018-12-26T11:44:18.878Z,10.10
2018-12-26T11:46:47.452Z,9.53
2018-12-26T11:49:16.038Z,9.40
2018-12-26T11:51:44.672Z,9.07
2018-12-26T11:54:13.314Z,9.37
2018-12-26T11:56:41.898Z,8.60
2018-12-26T11:59:10.459Z,9.37
2018-12-26T12:01:39.049Z,9.50
2018-12-26T12:04:07.681Z,9.10
2018-12-26T12:06:36.226Z,7.73
2018-12-26T12:09:06.562Z,9.57
2018-12-26T12:11:35.176Z,7.73
2018-12-26T12:14:04.290Z,9.23
2018-12-26T12:16:32.863Z,8.43
2018-12-26T12:19:01.579Z,9.87
2018-12-26T12:21:30.178Z,9.00
2018-12-26T12:23:58.740Z,9.83
2018-12-26T12:26:28.383Z,10.47
2018-12-26T12:28:57.099Z,9.60
2018-12-26T12:31:25.657Z,10.13
2018-12-26T12:33:54.245Z,8.87
2018-12-26T12:36:22.882Z,9.83
2018-12-26T12:38:51.599Z,9.73
2018-12-26T12:41:20.286Z,9.93
2018-12-26T12:43:49.075Z,10.00
2018-12-26T12:46:17.730Z,8.87
2018-12-26T12:48:46.519Z,12.05
2018-12-26T12:51:15.141Z,9.57
2018-12-26T12:53:43.694Z,11.80
2018-12-26T12:56:12.667Z,13.40
2018-12-26T12:58:41.233Z,9.47
2018-12-26T13:01:09.867Z,8.57
2018-12-26T13:03:46.352Z,10.70
2018-12-26T13:06:09.234Z,9.30
2018-12-26T13:08:37.783Z,9.20
2018-12-26T13:11:06.462Z,8.57
2018-12-26T13:13:35.014Z,10.80
2018-12-26T13:16:03.654Z,9.73
2018-12-26T13:18:32.226Z,9.05
2018-12-26T13:21:00.795Z,8.07
2018-12-26T13:23:29.372Z,10.78
2018-12-26T13:25:57.968Z,9.60
2018-12-26T13:28:26.521Z,10.50
2018-12-26T13:30:55.122Z,10.03
2018-12-26T13:33:25.310Z,10.20
2018-12-26T13:35:54.255Z,11.45
2018-12-26T13:38:22.835Z,10.33
2018-12-26T13:40:51.410Z,10.00
2018-12-26T13:43:20.059Z,9.73
2018-12-26T13:45:48.640Z,10.97
2018-12-26T13:48:17.211Z,9.73
2018-12-26T13:50:45.794Z,12.25
2018-12-26T13:53:14.366Z,11.27
2018-12-26T13:55:42.940Z,10.17
2018-12-26T13:58:11.522Z,10.07
2018-12-26T14:00:40.123Z,10.20
2018-12-26T14:03:08.718Z,9.80
2018-12-26T14:05:37.290Z,10.97
2018-12-26T14:08:05.863Z,10.20
2018-12-26T14:10:34.499Z,11.23
2018-12-26T14:13:03.048Z,10.77
2018-12-26T14:15:31.618Z,10.33
2018-12-26T14:18:00.225Z,10.80
2018-12-26T14:20:28.772Z,9.67
2018-12-26T14:22:57.410Z,10.10
2018-12-26T14:25:25.986Z,10.83
2018-12-26T14:27:54.894Z,10.27
2018-12-26T14:30:23.474Z,10.57
2018-12-26T14:32:52.130Z,11.10
2018-12-26T14:35:20.687Z,10.57
2018-12-26T14:37:49.285Z,10.23
2018-12-26T14:40:17.837Z,12.00
2018-12-26T14:42:46.363Z,9.70
2018-12-26T14:45:14.926Z,8.50
2018-12-26T14:47:43.471Z,9.90
2018-12-26T14:50:12.074Z,10.07
2018-12-26T14:52:40.619Z,8.53
2018-12-26T14:55:09.203Z,11.03
2018-12-26T14:57:37.797Z,13.78
2018-12-26T15:00:07.095Z,10.37
2018-12-26T15:02:35.681Z,10.63
2018-12-26T15:05:04.714Z,12.03
2018-12-26T15:07:33.346Z,13.40
2018-12-26T15:10:01.946Z,11.10
2018-12-26T15:12:30.507Z,11.27
2018-12-26T15:14:59.075Z,13.23
2018-12-26T15:17:27.654Z,10.27
2018-12-26T15:19:56.222Z,10.93
2018-12-26T15:22:24.807Z,10.10
2018-12-26T15:24:53.411Z,12.07
2018-12-26T15:27:21.976Z,12.78
2018-12-26T15:29:50.560Z,12.83
2018-12-26T15:32:19.132Z,11.63
2018-12-26T15:34:47.691Z,13.03
2018-12-26T15:37:16.281Z,12.07
2018-12-26T15:39:44.860Z,11.10
2018-12-26T15:42:13.463Z,11.13
2018-12-26T15:44:42.049Z,14.43
2018-12-26T15:47:10.623Z,12.30
2018-12-26T15:49:39.194Z,15.53
2018-12-26T15:52:07.762Z,13.30
2018-12-26T15:54:36.362Z,13.77
2018-12-26T15:57:04.948Z,16.53
2018-12-26T15:59:33.591Z,14.53
2018-12-26T16:02:02.478Z,14.10
2018-12-26T16:04:31.061Z,12.90
2018-12-26T16:06:59.624Z,12.97
2018-12-26T16:09:28.225Z,12.10
2018-12-26T16:11:56.790Z,15.07
2018-12-26T16:14:25.363Z,11.67
2018-12-26T16:16:54.010Z,13.43
2018-12-26T16:19:22.579Z,12.93
2018-12-26T16:21:51.174Z,15.07
2018-12-26T16:24:19.776Z,12.47
2018-12-26T16:26:48.424Z,13.13
2018-12-26T16:29:17.066Z,13.63
2018-12-26T16:31:45.639Z,12.53
2018-12-26T16:34:14.219Z,12.00
2018-12-26T16:36:42.819Z,11.13
2018-12-26T16:39:11.468Z,12.57
2018-12-26T16:41:40.057Z,12.70
2018-12-26T16:44:08.629Z,12.17
2018-12-26T16:46:37.280Z,13.77
2018-12-26T16:49:05.932Z,12.80
2018-12-26T16:51:34.499Z,13.70
2018-12-26T16:54:03.054Z,11.50
2018-12-26T16:56:31.666Z,14.37
2018-12-26T16:59:00.296Z,13.37
2018-12-26T17:01:28.883Z,13.00
2018-12-26T17:03:57.469Z,12.23
2018-12-26T17:06:26.046Z,13.43
2018-12-26T17:08:54.621Z,13.23
2018-12-26T17:11:23.179Z,12.97
2018-12-26T17:13:51.759Z,11.73
2018-12-26T17:16:20.667Z,13.10
2018-12-26T17:18:49.243Z,12.80
2018-12-26T17:21:17.814Z,13.17
2018-12-26T17:23:47.211Z,13.63
2018-12-26T17:26:15.758Z,12.63
2018-12-26T17:28:44.701Z,12.40
2018-12-26T17:31:13.268Z,13.37
2018-12-26T17:33:41.860Z,12.90
2018-12-26T17:36:10.430Z,13.13
2018-12-26T17:38:38.992Z,13.00
2018-12-26T17:41:07.591Z,13.13
2018-12-26T17:43:36.161Z,13.60
2018-12-26T17:46:06.771Z,12.13
2018-12-26T17:48:35.460Z,13.70
2018-12-26T17:51:06.559Z,13.67
2018-12-26T17:53:38.185Z,11.77
2018-12-26T17:56:09.839Z,12.00
2018-12-26T17:58:50.442Z,17.42
2018-12-26T18:01:36.595Z,14.03
2018-12-26T18:04:05.150Z,11.37
2018-12-26T18:06:33.737Z,15.00
2018-12-26T18:09:02.310Z,14.03
2018-12-26T18:11:30.881Z,13.50
2018-12-26T18:13:59.847Z,11.63
2018-12-26T18:16:28.399Z,14.87
2018-12-26T18:18:56.996Z,14.83
2018-12-26T18:21:25.570Z,15.50
2018-12-26T18:23:54.228Z,14.63
2018-12-26T18:26:22.801Z,14.27
2018-12-26T18:28:51.380Z,17.25
2018-12-26T18:31:22.029Z,15.20
2018-12-26T18:33:50.546Z,12.30
2018-12-26T18:36:19.100Z,14.17
2018-12-26T18:38:47.693Z,16.40
2018-12-26T18:41:16.251Z,13.90
2018-12-26T18:43:44.830Z,16.37
2018-12-26T18:46:13.410Z,15.70
2018-12-26T18:48:42.065Z,13.30
2018-12-26T18:51:10.931Z,14.97
2018-12-26T18:53:39.512Z,15.07
2018-12-26T18:56:08.080Z,15.27
2018-12-26T18:58:36.926Z,14.73
2018-12-26T19:01:05.562Z,14.80
2018-12-26T19:03:34.448Z,16.07
2018-12-26T19:06:03.051Z,12.80
2018-12-26T19:08:31.603Z,14.90
2018-12-26T19:11:00.523Z,15.53
2018-12-26T19:13:29.402Z,14.00
2018-12-26T19:15:58.035Z,14.63
2018-12-26T19:18:26.619Z,16.93
2018-12-26T19:20:55.195Z,14.53
2018-12-26T19:23:23.771Z,14.70
2018-12-26T19:25:52.454Z,15.97
2018-12-26T19:28:21.022Z,15.17
2018-12-26T19:30:49.598Z,14.33
2018-12-26T19:33:18.194Z,17.13
2018-12-26T19:35:46.747Z,22.22
2018-12-26T19:38:15.353Z,18.47
2018-12-26T19:40:43.906Z,17.43
2018-12-26T19:43:12.412Z,16.33
2018-12-26T19:45:41.019Z,17.73
2018-12-26T19:48:09.953Z,17.13
2018-12-26T19:50:38.525Z,16.17
2018-12-26T19:53:07.114Z,15.83
2018-12-26T19:55:35.672Z,19.13
2018-12-26T19:58:04.354Z,19.17
2018-12-26T20:00:32.903Z,18.80
2018-12-26T20:03:01.459Z,17.77
2018-12-26T20:05:30.062Z,16.53
2018-12-26T20:07:58.615Z,16.17
2018-12-26T20:10:27.209Z,17.20
2018-12-26T20:12:55.790Z,15.37
2018-12-26T20:15:24.364Z,14.87
2018-12-26T20:17:52.941Z,14.03
2018-12-26T20:20:21.511Z,14.97
2018-12-26T20:22:50.147Z,15.27
2018-12-26T20:25:18.749Z,13.37
2018-12-26T20:27:47.888Z,14.00
2018-12-26T20:30:16.470Z,14.53
2018-12-26T20:32:45.058Z,12.90
2018-12-26T20:35:13.610Z,12.57
2018-12-26T20:37:42.205Z,12.73
2018-12-26T20:40:10.755Z,12.77
2018-12-26T20:42:39.692Z,12.43
2018-12-26T20:45:08.409Z,12.70
2018-12-26T20:47:36.963Z,11.80
2018-12-26T20:50:07.197Z,12.60
2018-12-26T20:52:35.777Z,12.60
2018-12-26T20:55:04.786Z,13.90
2018-12-26T20:57:33.360Z,9.97
2018-12-26T21:00:01.940Z,13.53
2018-12-26T21:02:30.500Z,12.00
2018-12-26T21:05:00.443Z,12.13
2018-12-26T21:07:29.261Z,13.47
2018-12-26T21:09:57.846Z,12.23
2018-12-26T21:12:26.791Z,12.77
2018-12-26T21:14:55.353Z,12.43
2018-12-26T21:17:23.985Z,12.30
2018-12-26T21:19:52.558Z,13.40
2018-12-26T21:22:21.119Z,13.57
2018-12-26T21:24:50.015Z,13.17
2018-12-26T21:27:18.590Z,12.40
2018-12-26T21:29:47.178Z,14.63
2018-12-26T21:32:15.853Z,14.23
2018-12-26T21:34:44.425Z,15.40
2018-12-26T21:37:13.007Z,14.80
2018-12-26T21:39:41.574Z,22.05
2018-12-26T21:42:10.146Z,19.23
2018-12-26T21:44:38.746Z,17.60
2018-12-26T21:47:07.296Z,15.97
2018-12-26T21:49:35.898Z,17.13
2018-12-26T21:52:04.646Z,14.77
2018-12-26T21:54:33.222Z,18.70
2018-12-26T21:57:01.797Z,17.43
2018-12-26T21:59:30.882Z,17.17
2018-12-26T22:01:59.534Z,14.23
2018-12-26T22:04:28.130Z,18.37
2018-12-26T22:06:57.024Z,17.93
2018-12-26T22:09:25.626Z,17.03
2018-12-26T22:11:54.206Z,18.47
2018-12-26T22:14:22.778Z,16.30
2018-12-26T22:16:51.364Z,18.23
2018-12-26T22:19:19.926Z,19.97
2018-12-26T22:21:48.483Z,20.43
2018-12-26T22:24:17.081Z,21.10
2018-12-26T22:26:45.631Z,18.70
2018-12-26T22:29:14.581Z,20.13
2018-12-26T22:31:43.163Z,20.47
2018-12-26T22:34:11.735Z,21.97
2018-12-26T22:36:40.319Z,21.53
2018-12-26T22:39:09.206Z,21.17
2018-12-26T22:41:37.783Z,21.10
2018-12-26T22:44:06.386Z,18.13
2018-12-26T22:46:34.943Z,20.20
2018-12-26T22:49:03.542Z,23.33
2018-12-26T22:51:32.169Z,24.13
2018-12-26T22:54:00.747Z,21.27
2018-12-26T22:56:29.336Z,19.37
2018-12-26T22:58:57.915Z,18.57
2018-12-26T23:01:26.563Z,20.30
2018-12-26T23:03:55.165Z,18.93
2018-12-26T23:06:23.731Z,19.97
2018-12-26T23:08:52.319Z,20.53
2018-12-26T23:11:20.899Z,20.47
2018-12-26T23:13:49.707Z,19.33
2018-12-26T23:16:18.287Z,20.70
2018-12-26T23:18:46.861Z,19.37
2018-12-26T23:21:15.433Z,20.67
2018-12-26T23:23:44.009Z,21.30
2018-12-26T23:26:12.675Z,17.30
2018-12-26T23:28:41.222Z,18.60
2018-12-26T23:31:09.803Z,18.23
2018-12-26T23:33:38.382Z,19.70
2018-12-26T23:36:06.946Z,17.37
2018-12-26T23:38:35.531Z,18.23
2018-12-26T23:41:04.194Z,16.00
2018-12-26T23:43:32.741Z,15.57
2018-12-26T23:46:01.352Z,16.80
2018-12-26T23:48:29.958Z,17.27
2018-12-26T23:50:58.821Z,15.77
2018-12-26T23:53:27.423Z,17.70
2018-12-26T23:55:55.982Z,17.87
2018-12-26T23:58:24.582Z,18.80
